createdAt,value
2017-05-03T00:00:16.288Z,12.2
2017-05-03T00:01:18.097Z,12.2
2017-05-03T00:02:19.920Z,12.2
2017-05-03T00:03:21.735Z,12.2
2017-05-03T00:04:23.901Z,12.2
2017-05-03T00:05:25.749Z,12.2
2017-05-03T00:06:27.561Z,12.2
2017-05-03T00:07:29.380Z,12.2
2017-05-03T00:08:31.186Z,12.2
2017-05-03T00:09:33.006Z,12.2
2017-05-03T00:10:34.809Z,12.2
2017-05-03T00:11:36.619Z,12.2
2017-05-03T00:12:38.434Z,12.2
2017-05-03T00:13:40.598Z,12.2
2017-05-03T00:14:42.739Z,12.2
2017-05-03T00:15:44.553Z,12.2
2017-05-03T00:16:46.360Z,12.2
2017-05-03T00:17:48.184Z,12.3
2017-05-03T00:18:49.995Z,12.2
2017-05-03T00:19:52.492Z,12.3
2017-05-03T00:20:54.641Z,12.2
2017-05-03T00:21:56.795Z,12.2
2017-05-03T00:22:58.620Z,12.2
2017-05-03T00:24:00.453Z,12.2
2017-05-03T00:25:02.260Z,12.2
2017-05-03T00:26:04.402Z,12.2
2017-05-03T00:27:06.549Z,12.2
2017-05-03T00:28:08.381Z,12.2
2017-05-03T00:29:10.209Z,12.2
2017-05-03T00:30:12.030Z,12.2
2017-05-03T00:31:13.830Z,12.2
2017-05-03T00:32:16.006Z,12.2
2017-05-03T00:33:17.834Z,12.2
2017-05-03T00:34:19.650Z,12.2
2017-05-03T00:35:21.789Z,12.2
2017-05-03T00:36:23.610Z,12.3
2017-05-03T00:37:25.811Z,12.2
2017-05-03T00:38:27.632Z,12.2
2017-05-03T00:39:29.439Z,12.3
2017-05-03T00:40:31.254Z,12.3
2017-05-03T00:41:33.067Z,12.3
2017-05-03T00:42:34.885Z,12.3
2017-05-03T00:43:36.702Z,12.3
2017-05-03T00:44:38.531Z,12.3
2017-05-03T00:45:40.342Z,12.3
2017-05-03T00:46:42.189Z,12.3
2017-05-03T00:47:43.993Z,12.3
2017-05-03T00:48:45.814Z,12.3
2017-05-03T00:49:47.619Z,12.2
2017-05-03T00:50:49.439Z,12.2
2017-05-03T00:51:51.251Z,12.3
2017-05-03T00:52:53.399Z,12.3
2017-05-03T00:53:55.242Z,12.3
2017-05-03T00:54:57.056Z,12.3
2017-05-03T00:55:59.234Z,12.3
2017-05-03T00:57:01.041Z,12.3
2017-05-03T00:58:02.848Z,12.2
2017-05-03T00:59:04.677Z,12.2
2017-05-03T01:00:06.488Z,12.2
2017-05-03T01:01:08.305Z,12.3
2017-05-03T01:02:10.114Z,12.2
2017-05-03T01:03:11.927Z,12.2
2017-05-03T01:04:13.754Z,12.2
2017-05-03T01:05:15.928Z,12.3
2017-05-03T01:06:17.736Z,12.3
2017-05-03T01:07:19.543Z,12.3
2017-05-03T01:08:21.354Z,12.3
2017-05-03T01:09:23.192Z,12.3
2017-05-03T01:10:25.015Z,12.3
2017-05-03T01:11:26.864Z,12.3
2017-05-03T01:12:28.661Z,12.3
2017-05-03T01:13:30.520Z,12.3
2017-05-03T01:14:32.330Z,12.3
2017-05-03T01:15:34.143Z,12.3
2017-05-03T01:16:35.944Z,12.3
2017-05-03T01:17:37.767Z,12.3
2017-05-03T01:18:39.932Z,12.3
2017-05-03T01:19:41.785Z,12.3
2017-05-03T01:20:43.596Z,12.3
2017-05-03T01:21:45.749Z,12.3
2017-05-03T01:22:47.557Z,12.3
2017-05-03T01:23:49.718Z,12.3
2017-05-03T01:24:51.529Z,12.3
2017-05-03T01:25:53.339Z,12.3
2017-05-03T01:26:55.157Z,12.3
2017-05-03T01:27:56.983Z,12.3
2017-05-03T01:28:59.128Z,12.3
2017-05-03T01:30:00.983Z,12.3
2017-05-03T01:31:02.786Z,12.3
2017-05-03T01:32:04.641Z,12.3
2017-05-03T01:33:06.788Z,12.3
2017-05-03T01:34:08.605Z,12.3
2017-05-03T01:35:10.419Z,12.3
2017-05-03T01:36:12.236Z,12.3
2017-05-03T01:37:14.051Z,12.4
2017-05-03T01:38:16.555Z,12.3
2017-05-03T01:39:18.381Z,12.3
2017-05-03T01:40:20.211Z,12.3
2017-05-03T01:41:22.355Z,12.3
2017-05-03T01:42:24.191Z,12.3
2017-05-03T01:43:25.994Z,12.3
2017-05-03T01:44:28.159Z,12.4
2017-05-03T01:45:30.315Z,12.4
2017-05-03T01:46:32.128Z,12.4
2017-05-03T01:47:34.281Z,12.4
2017-05-03T01:48:36.440Z,12.4
2017-05-03T01:49:38.250Z,12.4
2017-05-03T01:50:40.076Z,12.4
2017-05-03T01:51:42.228Z,12.4
2017-05-03T01:52:44.050Z,12.4
2017-05-03T01:53:45.877Z,12.4
2017-05-03T01:54:47.712Z,12.4
2017-05-03T01:55:49.532Z,12.4
2017-05-03T01:56:51.347Z,12.4
2017-05-03T01:57:53.163Z,12.3
2017-05-03T01:58:55.303Z,12.4
2017-05-03T01:59:57.131Z,12.3
2017-05-03T02:00:59.298Z,12.4
2017-05-03T02:02:01.114Z,12.3
2017-05-03T02:03:02.931Z,12.4
2017-05-03T02:04:04.745Z,12.4
2017-05-03T02:05:06.587Z,12.4
2017-05-03T02:06:08.395Z,12.4
2017-05-03T02:07:10.208Z,12.3
2017-05-03T02:08:12.023Z,12.4
2017-05-03T02:09:13.846Z,12.4
2017-05-03T02:10:16.021Z,12.4
2017-05-03T02:11:17.821Z,12.4
2017-05-03T02:12:19.656Z,12.4
2017-05-03T02:13:21.834Z,12.4
2017-05-03T02:14:23.987Z,12.4
2017-05-03T02:15:25.800Z,12.4
2017-05-03T02:16:27.611Z,12.4
2017-05-03T02:17:29.433Z,12.4
2017-05-03T02:18:31.235Z,12.4
2017-05-03T02:19:33.050Z,12.4
2017-05-03T02:20:34.855Z,12.4
2017-05-03T02:21:36.675Z,12.4
2017-05-03T02:22:38.500Z,12.4
2017-05-03T02:23:40.321Z,12.5
2017-05-03T02:24:43.148Z,12.4
2017-05-03T02:25:44.962Z,12.4
2017-05-03T02:26:46.794Z,12.4
2017-05-03T02:27:48.628Z,12.4
2017-05-03T02:28:50.445Z,12.4
2017-05-03T02:29:52.601Z,12.4
2017-05-03T02:30:54.432Z,12.4
2017-05-03T02:31:56.583Z,12.4
2017-05-03T02:32:58.501Z,12.4
2017-05-03T02:34:00.322Z,12.4
2017-05-03T02:35:02.117Z,12.4
2017-05-03T02:36:03.934Z,12.4
2017-05-03T02:37:05.740Z,12.4
2017-05-03T02:38:07.563Z,12.4
2017-05-03T02:39:09.368Z,12.5
2017-05-03T02:40:11.206Z,12.5
2017-05-03T02:41:13.011Z,12.4
2017-05-03T02:42:14.832Z,12.4
2017-05-03T02:43:16.679Z,12.5
2017-05-03T02:44:18.496Z,12.4
2017-05-03T02:45:20.310Z,12.4
2017-05-03T02:46:22.159Z,12.4
2017-05-03T02:47:23.975Z,12.4
2017-05-03T02:48:25.791Z,12.4
2017-05-03T02:49:27.604Z,12.4
2017-05-03T02:50:29.432Z,12.4
2017-05-03T02:51:31.274Z,12.5
2017-05-03T02:52:33.085Z,12.5
2017-05-03T02:53:34.934Z,12.5
2017-05-03T02:54:37.132Z,12.5
2017-05-03T02:55:38.944Z,12.5
2017-05-03T02:56:40.753Z,12.5
2017-05-03T02:57:42.632Z,12.5
2017-05-03T02:58:44.783Z,12.5
2017-05-03T02:59:46.979Z,12.5
2017-05-03T03:00:49.125Z,12.5
2017-05-03T03:01:50.931Z,12.5
2017-05-03T03:02:53.073Z,12.5
2017-05-03T03:03:54.898Z,12.5
2017-05-03T03:04:56.724Z,12.5
2017-05-03T03:05:58.872Z,12.5
2017-05-03T03:07:00.676Z,12.5
2017-05-03T03:08:02.502Z,12.5
2017-05-03T03:09:04.646Z,12.5
2017-05-03T03:10:06.459Z,12.5
2017-05-03T03:11:08.271Z,12.5
2017-05-03T03:12:10.096Z,12.6
2017-05-03T03:13:11.925Z,12.6
2017-05-03T03:14:13.740Z,12.6
2017-05-03T03:15:15.559Z,12.6
2017-05-03T03:16:17.370Z,12.6
2017-05-03T03:17:19.189Z,12.6
2017-05-03T03:18:21.003Z,12.6
2017-05-03T03:19:23.216Z,12.6
2017-05-03T03:20:25.025Z,12.6
2017-05-03T03:21:26.843Z,12.6
2017-05-03T03:22:28.649Z,12.6
2017-05-03T03:23:30.472Z,12.6
2017-05-03T03:24:32.302Z,12.7
2017-05-03T03:25:34.111Z,12.6
2017-05-03T03:26:35.933Z,12.7
2017-05-03T03:27:38.112Z,12.7
2017-05-03T03:28:40.294Z,12.7
2017-05-03T03:29:42.098Z,12.7
2017-05-03T03:30:43.914Z,12.7
2017-05-03T03:31:45.732Z,12.7
2017-05-03T03:32:47.559Z,12.7
2017-05-03T03:33:49.370Z,12.7
2017-05-03T03:34:51.882Z,12.7
2017-05-03T03:35:53.697Z,12.7
2017-05-03T03:36:55.507Z,12.7
2017-05-03T03:37:57.323Z,12.7
2017-05-03T03:38:59.146Z,12.7
2017-05-03T03:40:00.956Z,12.7
2017-05-03T03:41:02.768Z,12.7
2017-05-03T03:42:04.581Z,12.7
2017-05-03T03:43:06.390Z,12.7
2017-05-03T03:44:08.555Z,12.7
2017-05-03T03:45:10.375Z,12.7
2017-05-03T03:46:12.189Z,12.7
2017-05-03T03:47:14.022Z,12.7
2017-05-03T03:48:15.837Z,12.7
2017-05-03T03:49:18.001Z,12.7
2017-05-03T03:50:20.164Z,12.7
2017-05-03T03:51:21.975Z,12.7
2017-05-03T03:52:23.791Z,12.7
2017-05-03T03:53:25.620Z,12.7
2017-05-03T03:54:27.449Z,12.7
2017-05-03T03:55:29.613Z,12.7
2017-05-03T03:56:31.427Z,12.7
2017-05-03T03:57:33.235Z,12.7
2017-05-03T03:58:35.088Z,12.7
2017-05-03T03:59:36.900Z,12.7
2017-05-03T04:00:39.067Z,12.7
2017-05-03T04:01:40.920Z,12.8
2017-05-03T04:02:42.733Z,12.8
2017-05-03T04:03:44.543Z,12.8
2017-05-03T04:04:46.374Z,12.8
2017-05-03T04:05:48.198Z,12.8
2017-05-03T04:06:50.008Z,12.8
2017-05-03T04:07:51.829Z,12.8
2017-05-03T04:08:53.637Z,12.8
2017-05-03T04:09:55.459Z,12.8
2017-05-03T04:10:57.269Z,12.9
2017-05-03T04:11:59.107Z,12.8
2017-05-03T04:13:00.907Z,12.9
2017-05-03T04:14:02.732Z,12.8
2017-05-03T04:15:04.547Z,12.8
2017-05-03T04:16:06.366Z,12.8
2017-05-03T04:17:08.179Z,12.8
2017-05-03T04:18:10.328Z,12.8
2017-05-03T04:19:12.150Z,12.8
2017-05-03T04:20:13.965Z,12.8
2017-05-03T04:21:16.126Z,12.8
2017-05-03T04:22:17.932Z,12.8
2017-05-03T04:23:19.760Z,12.8
2017-05-03T04:24:21.580Z,12.9
2017-05-03T04:25:23.391Z,12.9
2017-05-03T04:26:25.538Z,12.9
2017-05-03T04:27:27.696Z,12.9
2017-05-03T04:28:29.514Z,12.8
2017-05-03T04:29:31.333Z,12.8
2017-05-03T04:30:33.143Z,12.8
2017-05-03T04:31:35.005Z,12.8
2017-05-03T04:32:36.840Z,12.9
2017-05-03T04:33:39.386Z,12.8
2017-05-03T04:34:41.234Z,12.9
2017-05-03T04:35:43.062Z,12.9
2017-05-03T04:36:45.222Z,12.9
2017-05-03T04:37:47.375Z,12.9
2017-05-03T04:38:49.182Z,12.9
2017-05-03T04:39:50.989Z,12.9
2017-05-03T04:40:52.838Z,12.9
2017-05-03T04:41:54.659Z,12.9
2017-05-03T04:42:56.500Z,12.9
2017-05-03T04:43:58.353Z,12.9
2017-05-03T04:45:00.855Z,12.9
2017-05-03T04:46:02.666Z,12.9
2017-05-03T04:47:04.489Z,12.9
2017-05-03T04:48:06.302Z,12.9
2017-05-03T04:49:08.131Z,12.9
2017-05-03T04:50:09.942Z,12.9
2017-05-03T04:51:11.763Z,12.9
2017-05-03T04:52:13.571Z,12.9
2017-05-03T04:53:15.755Z,12.9
2017-05-03T04:54:17.923Z,12.9
2017-05-03T04:55:19.732Z,12.9
2017-05-03T04:56:21.550Z,12.9
2017-05-03T04:57:23.359Z,12.9
2017-05-03T04:58:25.170Z,12.8
2017-05-03T04:59:27.315Z,12.8
2017-05-03T05:00:48.377Z,12.8
2017-05-03T05:01:50.239Z,12.8
2017-05-03T05:02:52.118Z,12.8
2017-05-03T05:03:54.337Z,12.8
2017-05-03T05:04:56.226Z,12.8
2017-05-03T05:05:58.082Z,12.8
2017-05-03T05:06:59.970Z,12.8
2017-05-03T05:08:01.805Z,12.8
2017-05-03T05:09:03.678Z,12.7
2017-05-03T05:10:05.877Z,12.7
2017-05-03T05:11:07.746Z,12.7
2017-05-03T05:12:09.600Z,12.7
2017-05-03T05:13:11.465Z,12.7
2017-05-03T05:14:13.332Z,12.7
2017-05-03T05:15:15.561Z,12.7
2017-05-03T05:16:17.424Z,12.7
2017-05-03T05:17:19.275Z,12.7
2017-05-03T05:18:21.138Z,12.7
2017-05-03T05:19:23.045Z,12.7
2017-05-03T05:20:24.915Z,12.7
2017-05-03T05:21:26.803Z,12.7
2017-05-03T05:22:28.669Z,12.7
2017-05-03T05:23:30.533Z,12.7
2017-05-03T05:24:32.405Z,12.7
2017-05-03T05:25:34.269Z,12.8
2017-05-03T05:26:36.132Z,12.8
2017-05-03T05:27:37.993Z,12.8
2017-05-03T05:28:39.884Z,12.8
2017-05-03T05:29:41.751Z,12.8
2017-05-03T05:30:43.601Z,12.8
2017-05-03T05:31:45.479Z,12.8
2017-05-03T05:32:47.335Z,12.8
2017-05-03T05:33:49.211Z,12.9
2017-05-03T05:34:51.405Z,12.9
2017-05-03T05:35:53.266Z,12.9
2017-05-03T05:36:55.136Z,13
2017-05-03T05:37:57.324Z,13
2017-05-03T05:38:59.193Z,13
2017-05-03T05:40:01.111Z,13
2017-05-03T05:41:02.981Z,13
2017-05-03T05:42:05.186Z,13.1
2017-05-03T05:43:07.047Z,13.1
2017-05-03T05:44:09.266Z,13.1
2017-05-03T05:45:11.153Z,13.1
2017-05-03T05:46:13.015Z,13.2
2017-05-03T05:47:14.888Z,13.2
2017-05-03T05:48:17.094Z,13.2
2017-05-03T05:49:18.973Z,13.2
2017-05-03T05:50:20.840Z,13.3
2017-05-03T05:51:23.055Z,13.3
2017-05-03T05:52:24.910Z,13.3
2017-05-03T05:53:26.788Z,13.4
2017-05-03T05:54:28.653Z,13.4
2017-05-03T05:55:30.514Z,13.4
2017-05-03T05:56:32.370Z,13.4
2017-05-03T05:57:34.237Z,13.5
2017-05-03T05:58:36.126Z,13.5
2017-05-03T05:59:38.661Z,13.5
2017-05-03T06:00:40.535Z,13.5
2017-05-03T06:01:42.400Z,13.5
2017-05-03T06:02:44.261Z,13.5
2017-05-03T06:03:46.117Z,13.6
2017-05-03T06:04:48.326Z,13.6
2017-05-03T06:05:50.861Z,13.6
2017-05-03T06:06:52.736Z,13.6
2017-05-03T06:07:54.940Z,13.7
2017-05-03T06:08:57.154Z,13.7
2017-05-03T06:09:59.004Z,13.7
2017-05-03T06:11:01.219Z,13.7
2017-05-03T06:12:03.099Z,13.7
2017-05-03T06:13:04.963Z,13.7
2017-05-03T06:14:06.825Z,13.8
2017-05-03T06:15:08.724Z,13.8
2017-05-03T06:16:10.923Z,13.8
2017-05-03T06:17:12.780Z,13.9
2017-05-03T06:18:15.010Z,13.9
2017-05-03T06:19:16.881Z,13.9
2017-05-03T06:20:19.089Z,14
2017-05-03T06:21:20.968Z,14
2017-05-03T06:22:23.177Z,14
2017-05-03T06:23:25.041Z,14
2017-05-03T06:24:26.911Z,14.1
2017-05-03T06:25:28.777Z,14.1
2017-05-03T06:26:30.647Z,14.1
2017-05-03T06:27:32.506Z,14.1
2017-05-03T06:28:34.706Z,14.2
2017-05-03T06:29:36.563Z,14.2
2017-05-03T06:30:38.437Z,14.2
2017-05-03T06:31:40.301Z,14.2
2017-05-03T06:32:42.175Z,14.3
2017-05-03T06:33:44.393Z,14.3
2017-05-03T06:34:46.288Z,14.3
2017-05-03T06:35:48.143Z,14.4
2017-05-03T06:36:50.008Z,14.4
2017-05-03T06:37:51.866Z,14.4
2017-05-03T06:38:53.738Z,14.4
2017-05-03T06:39:55.951Z,14.4
2017-05-03T06:40:57.830Z,14.4
2017-05-03T06:41:59.696Z,14.4
2017-05-03T06:43:01.567Z,14.4
2017-05-03T06:44:03.425Z,14.4
2017-05-03T06:45:05.326Z,14.5
2017-05-03T06:46:07.214Z,14.5
2017-05-03T06:47:09.078Z,14.5
2017-05-03T06:48:10.955Z,14.5
2017-05-03T06:49:12.831Z,14.6
2017-05-03T06:50:14.709Z,14.6
2017-05-03T06:51:17.010Z,14.6
2017-05-03T06:52:18.889Z,14.6
2017-05-03T06:53:20.756Z,14.7
2017-05-03T06:54:22.629Z,14.7
2017-05-03T06:55:24.507Z,14.8
2017-05-03T06:56:26.366Z,14.8
2017-05-03T06:57:28.237Z,14.8
2017-05-03T06:58:30.431Z,14.9
2017-05-03T06:59:32.298Z,14.9
2017-05-03T07:00:34.155Z,15
2017-05-03T07:01:36.031Z,15
2017-05-03T07:02:37.900Z,15.1
2017-05-03T07:03:40.109Z,15.2
2017-05-03T07:04:41.975Z,15.2
2017-05-03T07:05:43.864Z,15.3
2017-05-03T07:06:45.742Z,15.4
2017-05-03T07:07:47.598Z,15.4
2017-05-03T07:08:49.482Z,15.5
2017-05-03T07:09:51.715Z,15.5
2017-05-03T07:10:54.281Z,15.6
2017-05-03T07:11:56.172Z,15.6
2017-05-03T07:12:58.103Z,15.7
2017-05-03T07:14:00.405Z,15.8
2017-05-03T07:15:02.723Z,15.9
2017-05-03T07:16:04.597Z,16
2017-05-03T07:17:06.490Z,16.1
2017-05-03T07:18:08.791Z,16.1
2017-05-03T07:19:11.456Z,16.1
2017-05-03T07:20:13.664Z,16.2
2017-05-03T07:21:15.577Z,16.2
2017-05-03T07:22:17.445Z,16.2
2017-05-03T07:23:19.310Z,16.2
2017-05-03T07:24:21.188Z,16.3
2017-05-03T07:25:23.044Z,16.3
2017-05-03T07:26:24.909Z,16.3
2017-05-03T07:27:27.126Z,16.4
2017-05-03T07:28:29.001Z,16.4
2017-05-03T07:29:30.867Z,16.4
2017-05-03T07:30:32.732Z,16.5
2017-05-03T07:31:34.619Z,16.6
2017-05-03T07:32:36.474Z,16.6
2017-05-03T07:33:38.368Z,16.7
2017-05-03T07:34:40.239Z,16.7
2017-05-03T07:35:42.451Z,16.7
2017-05-03T07:36:44.663Z,16.7
2017-05-03T07:37:46.516Z,16.7
2017-05-03T07:38:48.762Z,16.6
2017-05-03T07:39:50.631Z,16.6
2017-05-03T07:40:52.512Z,16.6
2017-05-03T07:41:54.363Z,16.6
2017-05-03T07:42:56.243Z,16.6
2017-05-03T07:43:58.121Z,16.5
2017-05-03T07:44:59.986Z,16.5
2017-05-03T07:46:01.870Z,16.5
2017-05-03T07:47:03.752Z,16.5
2017-05-03T07:48:05.632Z,16.5
2017-05-03T07:49:07.478Z,16.6
2017-05-03T07:50:09.360Z,16.6
2017-05-03T07:51:11.216Z,16.6
2017-05-03T07:52:13.116Z,16.7
2017-05-03T07:53:14.981Z,16.7
2017-05-03T07:54:17.200Z,16.8
2017-05-03T07:55:19.079Z,16.8
2017-05-03T07:56:21.286Z,16.8
2017-05-03T07:57:23.142Z,16.8
2017-05-03T07:58:25.017Z,16.8
2017-05-03T07:59:26.888Z,16.8
2017-05-03T08:00:28.775Z,16.8
2017-05-03T08:01:30.661Z,16.9
2017-05-03T08:02:32.519Z,16.9
2017-05-03T08:03:34.405Z,17
2017-05-03T08:04:36.281Z,17
2017-05-03T08:05:38.175Z,17
2017-05-03T08:06:40.378Z,17.1
2017-05-03T08:07:42.253Z,17.1
2017-05-03T08:08:44.147Z,17.1
2017-05-03T08:09:46.012Z,17.2
2017-05-03T08:10:47.893Z,17.2
2017-05-03T08:11:49.762Z,17.3
2017-05-03T08:12:51.630Z,17.3
2017-05-03T08:13:53.514Z,17.3
2017-05-03T08:14:55.383Z,17.4
2017-05-03T08:15:57.282Z,17.4
2017-05-03T08:16:59.164Z,17.5
2017-05-03T08:18:01.034Z,17.5
2017-05-03T08:19:02.890Z,17.6
2017-05-03T08:20:04.771Z,17.6
2017-05-03T08:21:07.004Z,17.6
2017-05-03T08:22:08.911Z,17.7
2017-05-03T08:23:10.794Z,17.8
2017-05-03T08:24:13.053Z,17.8
2017-05-03T08:25:14.964Z,17.9
2017-05-03T08:26:17.204Z,17.9
2017-05-03T08:27:19.398Z,18.1
2017-05-03T08:28:21.274Z,18.2
2017-05-03T08:29:23.140Z,18.2
2017-05-03T08:30:25.026Z,18.3
2017-05-03T08:31:26.918Z,18.4
2017-05-03T08:32:28.839Z,18.4
2017-05-03T08:33:30.808Z,18.4
2017-05-03T08:34:32.745Z,18.4
2017-05-03T08:35:34.669Z,18.4
2017-05-03T08:36:36.586Z,18.4
2017-05-03T08:37:38.482Z,18.5
2017-05-03T08:38:40.425Z,18.4
2017-05-03T08:39:42.302Z,18.5
2017-05-03T08:40:44.185Z,18.5
2017-05-03T08:41:46.080Z,18.4
2017-05-03T08:42:47.976Z,18.4
2017-05-03T08:43:49.899Z,18.4
2017-05-03T08:44:51.765Z,18.4
2017-05-03T08:45:53.637Z,18.4
2017-05-03T08:46:55.494Z,18.3
2017-05-03T08:47:57.700Z,18.3
2017-05-03T08:48:59.603Z,18.3
2017-05-03T08:50:01.463Z,18.2
2017-05-03T08:51:03.685Z,18.2
2017-05-03T08:52:05.561Z,18.2
2017-05-03T08:53:07.492Z,18.2
2017-05-03T08:54:09.354Z,18.2
2017-05-03T08:55:11.229Z,18.2
2017-05-03T08:56:13.093Z,18.2
2017-05-03T08:57:15.027Z,18.2
2017-05-03T08:58:16.906Z,18.2
2017-05-03T08:59:18.784Z,18.2
2017-05-03T09:00:20.657Z,18.2
2017-05-03T09:01:22.561Z,18.2
2017-05-03T09:02:24.451Z,18.3
2017-05-03T09:03:26.324Z,18.3
2017-05-03T09:04:28.223Z,18.4
2017-05-03T09:05:30.111Z,18.5
2017-05-03T09:06:31.985Z,18.5
2017-05-03T09:07:33.855Z,18.5
2017-05-03T09:08:36.090Z,18.6
2017-05-03T09:09:37.993Z,18.6
2017-05-03T09:10:40.281Z,18.6
2017-05-03T09:11:42.236Z,18.7
2017-05-03T09:12:44.861Z,18.7
2017-05-03T09:13:46.787Z,18.8
2017-05-03T09:14:48.744Z,18.8
2017-05-03T09:15:50.994Z,18.8
2017-05-03T09:16:53.253Z,18.8
2017-05-03T09:17:55.175Z,18.7
2017-05-03T09:18:57.458Z,18.7
2017-05-03T09:19:59.348Z,18.6
2017-05-03T09:21:01.263Z,18.6
2017-05-03T09:22:03.492Z,18.6
2017-05-03T09:23:05.359Z,18.5
2017-05-03T09:24:07.245Z,18.5
2017-05-03T09:25:09.129Z,18.5
2017-05-03T09:26:11.024Z,18.5
2017-05-03T09:27:12.913Z,18.5
2017-05-03T09:28:14.780Z,18.6
2017-05-03T09:29:17.001Z,18.7
2017-05-03T09:30:18.866Z,18.8
2017-05-03T09:31:20.744Z,19
2017-05-03T09:32:22.960Z,19.2
2017-05-03T09:33:24.847Z,19.4
2017-05-03T09:34:26.726Z,19.6
2017-05-03T09:35:28.592Z,19.8
2017-05-03T09:36:30.459Z,19.9
2017-05-03T09:37:32.714Z,20
2017-05-03T09:38:34.927Z,20
2017-05-03T09:39:36.795Z,20
2017-05-03T09:40:38.657Z,20
2017-05-03T09:41:40.528Z,19.9
2017-05-03T09:42:42.397Z,19.9
2017-05-03T09:43:44.282Z,19.8
2017-05-03T09:44:46.488Z,19.8
2017-05-03T09:45:48.364Z,19.8
2017-05-03T09:46:50.227Z,19.8
2017-05-03T09:47:52.124Z,19.8
2017-05-03T09:48:53.993Z,19.8
2017-05-03T09:49:55.870Z,19.8
2017-05-03T09:50:57.748Z,19.8
2017-05-03T09:51:59.621Z,19.8
2017-05-03T09:53:01.501Z,19.8
2017-05-03T09:54:03.428Z,19.8
2017-05-03T09:55:05.329Z,19.8
2017-05-03T09:56:07.218Z,19.9
2017-05-03T09:57:09.146Z,19.8
2017-05-03T09:58:11.101Z,19.8
2017-05-03T09:59:13.004Z,19.8
2017-05-03T10:00:15.269Z,19.9
2017-05-03T10:01:17.488Z,19.9
2017-05-03T10:02:19.399Z,19.9
2017-05-03T10:03:21.336Z,20
2017-05-03T10:04:23.249Z,20
2017-05-03T10:05:25.122Z,20.1
2017-05-03T10:06:26.995Z,20.1
2017-05-03T10:07:28.864Z,20.1
2017-05-03T10:08:30.727Z,20.1
2017-05-03T10:09:32.589Z,20.1
2017-05-03T10:10:34.805Z,20.1
2017-05-03T10:11:36.678Z,20.1
2017-05-03T10:12:38.563Z,20.1
2017-05-03T10:13:40.435Z,20
2017-05-03T10:14:42.295Z,19.9
2017-05-03T10:15:44.183Z,19.9
2017-05-03T10:16:46.056Z,19.8
2017-05-03T10:17:47.932Z,19.8
2017-05-03T10:18:50.147Z,19.7
2017-05-03T10:19:52.023Z,19.7
2017-05-03T10:20:53.908Z,19.7
2017-05-03T10:21:55.783Z,19.7
2017-05-03T10:22:57.647Z,19.7
2017-05-03T10:25:02.359Z,19.8
2017-05-03T10:26:04.244Z,19.9
2017-05-03T10:27:06.109Z,19.9
2017-05-03T10:28:07.980Z,20
2017-05-03T10:29:10.200Z,20
2017-05-03T10:30:12.077Z,19.9
2017-05-03T10:31:13.938Z,19.9
2017-05-03T10:32:16.137Z,19.9
2017-05-03T10:33:17.999Z,19.9
2017-05-03T10:34:19.881Z,19.9
2017-05-03T10:35:22.083Z,20
2017-05-03T10:36:23.959Z,20
2017-05-03T10:37:25.813Z,20.1
2017-05-03T10:38:27.681Z,20.1
2017-05-03T10:39:29.563Z,20.1
2017-05-03T10:40:31.431Z,20.1
2017-05-03T10:41:33.313Z,20.2
2017-05-03T10:42:35.192Z,20.2
2017-05-03T10:43:37.060Z,20.2
2017-05-03T10:44:38.929Z,20.2
2017-05-03T10:45:40.799Z,20.3
2017-05-03T10:46:42.669Z,20.4
2017-05-03T10:47:44.542Z,20.5
2017-05-03T10:48:46.410Z,20.5
2017-05-03T10:49:48.287Z,20.5
2017-05-03T10:50:50.163Z,20.6
2017-05-03T10:51:52.403Z,20.6
2017-05-03T10:52:54.281Z,20.8
2017-05-03T10:53:56.188Z,20.9
2017-05-03T10:54:58.074Z,21.1
2017-05-03T10:55:59.945Z,21.3
2017-05-03T10:57:01.814Z,21.5
2017-05-03T10:58:03.684Z,21.7
2017-05-03T10:59:05.569Z,21.9
2017-05-03T11:00:07.770Z,22.1
2017-05-03T11:01:09.978Z,22.3
2017-05-03T11:02:11.854Z,22.4
2017-05-03T11:03:13.712Z,22.7
2017-05-03T11:04:15.583Z,22.8
2017-05-03T11:05:17.455Z,22.9
2017-05-03T11:06:19.321Z,23.1
2017-05-03T11:07:21.255Z,23.2
2017-05-03T11:08:23.195Z,23.3
2017-05-03T11:09:25.135Z,23.4
2017-05-03T11:10:27.030Z,23.5
2017-05-03T11:11:28.935Z,23.7
2017-05-03T11:12:30.857Z,23.8
2017-05-03T11:13:32.814Z,23.9
2017-05-03T11:14:35.067Z,24.1
2017-05-03T11:15:37.053Z,24.3
2017-05-03T11:16:39.014Z,24.4
2017-05-03T11:17:40.906Z,24.6
2017-05-03T11:18:43.108Z,24.8
2017-05-03T11:19:45.001Z,24.9
2017-05-03T11:20:46.879Z,25
2017-05-03T11:21:48.764Z,25.1
2017-05-03T11:22:50.633Z,25.2
2017-05-03T11:23:52.550Z,25.3
2017-05-03T11:24:54.492Z,25.3
2017-05-03T11:25:56.368Z,25.4
2017-05-03T11:26:58.228Z,25.4
2017-05-03T11:28:00.109Z,25.4
2017-05-03T11:29:01.994Z,25.5
2017-05-03T11:30:03.895Z,25.6
2017-05-03T11:31:05.790Z,25.7
2017-05-03T11:32:07.675Z,25.8
2017-05-03T11:33:09.602Z,25.9
2017-05-03T11:34:11.516Z,26.1
2017-05-03T11:35:13.541Z,26.2
2017-05-03T11:36:15.421Z,26.4
2017-05-03T11:37:17.365Z,26.5
2017-05-03T11:38:19.246Z,26.6
2017-05-03T11:39:21.152Z,26.7
2017-05-03T11:40:23.038Z,26.7
2017-05-03T11:41:24.965Z,26.8
2017-05-03T11:42:27.185Z,26.8
2017-05-03T11:43:29.073Z,26.8
2017-05-03T11:44:31.530Z,26.7
2017-05-03T11:45:33.402Z,26.7
2017-05-03T11:46:35.310Z,26.7
2017-05-03T11:47:37.544Z,26.6
2017-05-03T11:48:39.757Z,26.5
2017-05-03T11:49:41.640Z,26.4
2017-05-03T11:50:43.776Z,26.4
2017-05-03T11:51:45.698Z,26.3
2017-05-03T11:52:47.814Z,26.3
2017-05-03T11:53:49.927Z,26.3
2017-05-03T11:54:51.839Z,26.2
2017-05-03T11:55:54.145Z,26.2
2017-05-03T11:56:56.068Z,26.1
2017-05-03T11:57:58.326Z,26
2017-05-03T11:59:00.221Z,26
2017-05-03T12:00:02.136Z,25.8
2017-05-03T12:01:04.435Z,25.7
2017-05-03T12:02:06.343Z,25.6
2017-05-03T12:03:08.264Z,25.6
2017-05-03T12:04:10.147Z,25.5
2017-05-03T12:05:12.014Z,25.5
2017-05-03T12:06:13.899Z,25.4
2017-05-03T12:07:15.775Z,25.4
2017-05-03T12:08:17.644Z,25.3
2017-05-03T12:09:19.518Z,25.2
2017-05-03T12:10:21.408Z,25.1
2017-05-03T12:11:23.277Z,25
2017-05-03T12:12:25.148Z,25
2017-05-03T12:13:27.035Z,24.9
2017-05-03T12:14:28.914Z,24.9
2017-05-03T12:15:31.137Z,24.8
2017-05-03T12:16:33.037Z,24.8
2017-05-03T12:17:34.895Z,24.7
2017-05-03T12:18:36.787Z,24.7
2017-05-03T12:19:38.656Z,24.6
2017-05-03T12:20:40.539Z,24.6
2017-05-03T12:21:42.736Z,24.5
2017-05-03T12:22:44.628Z,24.5
2017-05-03T12:23:46.505Z,24.5
2017-05-03T12:24:48.376Z,24.4
2017-05-03T12:25:50.613Z,24.3
2017-05-03T12:26:52.481Z,24.3
2017-05-03T12:27:54.369Z,24.2
2017-05-03T12:28:56.258Z,24.2
2017-05-03T12:29:58.113Z,24.1
2017-05-03T12:31:00.343Z,24
2017-05-03T12:32:02.204Z,24
2017-05-03T12:33:04.109Z,24
2017-05-03T12:34:05.981Z,23.9
2017-05-03T12:35:07.859Z,23.9
2017-05-03T12:36:09.738Z,23.8
2017-05-03T12:37:11.607Z,23.8
2017-05-03T12:38:13.837Z,23.7
2017-05-03T12:39:15.711Z,23.6
2017-05-03T12:40:17.582Z,23.5
2017-05-03T12:41:19.487Z,23.4
2017-05-03T12:42:21.351Z,23.4
2017-05-03T12:43:23.219Z,23.3
2017-05-03T12:44:25.093Z,23.2
2017-05-03T12:45:26.986Z,23.2
2017-05-03T12:46:28.857Z,23.1
2017-05-03T12:47:30.732Z,23.1
2017-05-03T12:48:32.599Z,23.1
2017-05-03T12:49:34.807Z,23
2017-05-03T12:50:36.681Z,23
2017-05-03T12:51:38.569Z,23
2017-05-03T12:52:40.436Z,23
2017-05-03T12:53:42.307Z,22.9
2017-05-03T12:54:44.199Z,22.9
2017-05-03T12:56:43.872Z,22.8
2017-05-03T12:57:46.041Z,22.8
2017-05-03T12:58:47.882Z,22.7
2017-05-03T12:59:49.716Z,22.6
2017-05-03T13:00:51.552Z,22.5
2017-05-03T13:01:53.737Z,22.4
2017-05-03T13:02:55.921Z,22.4
2017-05-03T13:03:57.747Z,22.3
2017-05-03T13:04:59.595Z,22.3
2017-05-03T13:06:01.427Z,22.2
2017-05-03T13:07:03.260Z,22.2
2017-05-03T13:08:05.097Z,22.2
2017-05-03T13:09:06.933Z,22.2
2017-05-03T13:10:08.774Z,22.2
2017-05-03T13:11:10.949Z,22.1
2017-05-03T13:12:12.790Z,22.1
2017-05-03T13:13:14.641Z,22.1
2017-05-03T13:14:16.475Z,22.1
2017-05-03T13:15:18.305Z,22.1
2017-05-03T13:16:20.490Z,22.1
2017-05-03T13:17:22.326Z,22.2
2017-05-03T13:18:24.213Z,22.2
2017-05-03T13:19:26.045Z,22.2
2017-05-03T13:20:28.230Z,22.2
2017-05-03T13:21:30.073Z,22.2
2017-05-03T13:22:31.924Z,22.3
2017-05-03T13:23:34.117Z,22.2
2017-05-03T13:24:35.960Z,22.2
2017-05-03T13:25:37.793Z,22.3
2017-05-03T13:26:39.637Z,22.3
2017-05-03T13:27:41.814Z,22.4
2017-05-03T13:28:43.651Z,22.4
2017-05-03T13:29:45.486Z,22.5
2017-05-03T13:30:47.318Z,22.6
2017-05-03T13:31:49.149Z,22.7
2017-05-03T13:32:50.987Z,22.8
2017-05-03T13:33:53.177Z,22.9
2017-05-03T13:34:55.353Z,23
2017-05-03T13:35:57.186Z,23.1
2017-05-03T13:36:59.041Z,23.1
2017-05-03T13:38:00.879Z,23.2
2017-05-03T13:39:02.725Z,23.3
2017-05-03T13:40:04.572Z,23.3
2017-05-03T13:41:06.417Z,23.4
2017-05-03T13:42:08.250Z,23.5
2017-05-03T13:43:10.093Z,23.6
2017-05-03T13:44:11.928Z,23.6
2017-05-03T13:45:13.796Z,23.7
2017-05-03T13:46:15.633Z,23.7
2017-05-03T13:47:17.479Z,23.7
2017-05-03T13:48:19.316Z,23.7
2017-05-03T13:49:21.154Z,23.7